sensor_id;sensor_type;location;lat;lon;timestamp;temperature;humidity
14733;DHT22;7457;50.960;6.830;2022-07-01T00:01:19;14.80;99.90
14733;DHT22;7457;50.960;6.830;2022-07-01T00:03:45;14.70;99.90
14733;DHT22;7457;50.960;6.830;2022-07-01T00:06:17;14.80;99.90
14733;DHT22;7457;50.960;6.830;2022-07-01T00:08:43;14.70;99.90
14733;DHT22;7457;50.960;6.830;2022-07-01T00:11:09;14.70;99.90
14733;DHT22;7457;50.960;6.830;2022-07-01T00:13:35;14.70;99.90
14733;DHT22;7457;50.960;6.830;2022-07-01T00:16:00;14.70;99.90
14733;DHT22;7457;50.960;6.830;2022-07-01T00:18:26;14.70;99.90
14733;DHT22;7457;50.960;6.830;2022-07-01T00:20:52;14.70;99.90
14733;DHT22;7457;50.960;6.830;2022-07-01T00:23:18;14.70;99.90
14733;DHT22;7457;50.960;6.830;2022-07-01T00:25:44;14.60;99.90
14733;DHT22;7457;50.960;6.830;2022-07-01T00:28:10;14.70;99.90
14733;DHT22;7457;50.960;6.830;2022-07-01T00:30:36;14.60;99.90
14733;DHT22;7457;50.960;6.830;2022-07-01T00:33:02;14.70;99.90
14733;DHT22;7457;50.960;6.830;2022-07-01T00:35:28;14.60;99.90
14733;DHT22;7457;50.960;6.830;2022-07-01T00:37:54;14.60;99.90
14733;DHT22;7457;50.960;6.830;2022-07-01T00:40:19;14.60;99.90
14733;DHT22;7457;50.960;6.830;2022-07-01T00:42:45;14.60;99.90
14733;DHT22;7457;50.960;6.830;2022-07-01T00:45:11;14.60;99.90
14733;DHT22;7457;50.960;6.830;2022-07-01T00:47:38;14.60;99.90
14733;DHT22;7457;50.960;6.830;2022-07-01T00:50:12;14.60;99.90
14733;DHT22;7457;50.960;6.830;2022-07-01T00:52:39;14.60;99.90
14733;DHT22;7457;50.960;6.830;2022-07-01T00:55:10;14.60;99.90
14733;DHT22;7457;50.960;6.830;2022-07-01T00:57:38;14.60;99.90
14733;DHT22;7457;50.960;6.830;2022-07-01T01:00:09;14.60;99.90
14733;DHT22;7457;50.960;6.830;2022-07-01T01:02:35;14.50;99.90
14733;DHT22;7457;50.960;6.830;2022-07-01T01:05:05;14.50;99.90
14733;DHT22;7457;50.960;6.830;2022-07-01T01:07:31;14.50;99.90
14733;DHT22;7457;50.960;6.830;2022-07-01T01:09:59;14.50;99.90
14733;DHT22;7457;50.960;6.830;2022-07-01T01:12:28;14.60;99.90
14733;DHT22;7457;50.960;6.830;2022-07-01T01:14:54;14.50;99.90
14733;DHT22;7457;50.960;6.830;2022-07-01T01:17:20;14.40;99.90
14733;DHT22;7457;50.960;6.830;2022-07-01T01:19:48;14.40;99.90
14733;DHT22;7457;50.960;6.830;2022-07-01T01:22:15;14.40;99.90
14733;DHT22;7457;50.960;6.830;2022-07-01T01:24:41;14.40;99.90
14733;DHT22;7457;50.960;6.830;2022-07-01T01:27:07;14.40;99.90
14733;DHT22;7457;50.960;6.830;2022-07-01T01:29:35;14.40;99.90
14733;DHT22;7457;50.960;6.830;2022-07-01T01:32:02;14.40;99.90
14733;DHT22;7457;50.960;6.830;2022-07-01T01:34:28;14.40;99.90
14733;DHT22;7457;50.960;6.830;2022-07-01T01:36:53;14.40;99.90
14733;DHT22;7457;50.960;6.830;2022-07-01T01:39:19;14.40;99.90
14733;DHT22;7457;50.960;6.830;2022-07-01T01:41:46;14.40;99.90
14733;DHT22;7457;50.960;6.830;2022-07-01T01:44:11;14.40;99.90
14733;DHT22;7457;50.960;6.830;2022-07-01T01:46:37;14.40;99.90
14733;DHT22;7457;50.960;6.830;2022-07-01T01:49:06;14.40;99.90
14733;DHT22;7457;50.960;6.830;2022-07-01T01:51:32;14.50;99.90
14733;DHT22;7457;50.960;6.830;2022-07-01T01:53:58;14.50;99.90
14733;DHT22;7457;50.960;6.830;2022-07-01T01:56:24;14.40;99.90
14733;DHT22;7457;50.960;6.830;2022-07-01T01:58:49;14.50;99.90
14733;DHT22;7457;50.960;6.830;2022-07-01T02:01:16;14.40;99.90
14733;DHT22;7457;50.960;6.830;2022-07-01T02:03:44;14.40;99.90
14733;DHT22;7457;50.960;6.830;2022-07-01T02:06:11;14.40;99.90
14733;DHT22;7457;50.960;6.830;2022-07-01T02:08:40;14.40;99.90
14733;DHT22;7457;50.960;6.830;2022-07-01T02:11:07;14.40;99.90
14733;DHT22;7457;50.960;6.830;2022-07-01T02:13:34;14.30;99.90
14733;DHT22;7457;50.960;6.830;2022-07-01T02:16:00;14.30;99.90
14733;DHT22;7457;50.960;6.830;2022-07-01T02:18:25;14.30;99.90
14733;DHT22;7457;50.960;6.830;2022-07-01T02:20:51;14.30;99.90
14733;DHT22;7457;50.960;6.830;2022-07-01T02:23:17;14.20;99.90
14733;DHT22;7457;50.960;6.830;2022-07-01T02:25:43;14.20;99.90
14733;DHT22;7457;50.960;6.830;2022-07-01T02:28:09;14.20;99.90
14733;DHT22;7457;50.960;6.830;2022-07-01T02:30:35;14.20;99.90
14733;DHT22;7457;50.960;6.830;2022-07-01T02:33:05;14.20;99.90
14733;DHT22;7457;50.960;6.830;2022-07-01T02:35:35;14.20;99.90
14733;DHT22;7457;50.960;6.830;2022-07-01T02:38:02;14.20;99.90
14733;DHT22;7457;50.960;6.830;2022-07-01T02:40:28;14.20;99.90
14733;DHT22;7457;50.960;6.830;2022-07-01T02:42:54;14.10;99.90
14733;DHT22;7457;50.960;6.830;2022-07-01T02:45:19;14.10;99.90
14733;DHT22;7457;50.960;6.830;2022-07-01T02:47:45;14.10;99.90
14733;DHT22;7457;50.960;6.830;2022-07-01T02:50:12;14.10;99.90
14733;DHT22;7457;50.960;6.830;2022-07-01T02:52:39;14.10;99.90
14733;DHT22;7457;50.960;6.830;2022-07-01T02:55:07;14.10;99.90
14733;DHT22;7457;50.960;6.830;2022-07-01T02:57:33;14.10;99.90
14733;DHT22;7457;50.960;6.830;2022-07-01T02:59:58;14.10;99.90
14733;DHT22;7457;50.960;6.830;2022-07-01T03:02:24;14.10;99.90
14733;DHT22;7457;50.960;6.830;2022-07-01T03:04:51;14.20;99.90
14733;DHT22;7457;50.960;6.830;2022-07-01T03:07:18;14.20;99.90
14733;DHT22;7457;50.960;6.830;2022-07-01T03:09:44;14.20;99.90
14733;DHT22;7457;50.960;6.830;2022-07-01T03:12:11;14.20;99.90
14733;DHT22;7457;50.960;6.830;2022-07-01T03:17:22;14.30;99.90
14733;DHT22;7457;50.960;6.830;2022-07-01T03:19:48;14.30;99.90
14733;DHT22;7457;50.960;6.830;2022-07-01T03:22:14;14.30;99.90
14733;DHT22;7457;50.960;6.830;2022-07-01T03:24:40;14.30;99.90
14733;DHT22;7457;50.960;6.830;2022-07-01T03:27:06;14.30;99.90
14733;DHT22;7457;50.960;6.830;2022-07-01T03:29:31;14.30;99.90
14733;DHT22;7457;50.960;6.830;2022-07-01T03:31:57;14.20;99.90
14733;DHT22;7457;50.960;6.830;2022-07-01T03:34:22;14.30;99.90
14733;DHT22;7457;50.960;6.830;2022-07-01T03:36:48;14.30;99.90
14733;DHT22;7457;50.960;6.830;2022-07-01T03:39:14;14.30;99.90
14733;DHT22;7457;50.960;6.830;2022-07-01T03:41:39;14.30;99.90
14733;DHT22;7457;50.960;6.830;2022-07-01T03:44:05;14.30;99.90
14733;DHT22;7457;50.960;6.830;2022-07-01T03:46:34;14.30;99.90
14733;DHT22;7457;50.960;6.830;2022-07-01T03:49:01;14.30;99.90
14733;DHT22;7457;50.960;6.830;2022-07-01T03:51:30;14.30;99.90
14733;DHT22;7457;50.960;6.830;2022-07-01T03:53:55;14.30;99.90
14733;DHT22;7457;50.960;6.830;2022-07-01T03:56:39;14.30;99.90
14733;DHT22;7457;50.960;6.830;2022-07-01T03:59:05;14.30;99.90
14733;DHT22;7457;50.960;6.830;2022-07-01T04:01:31;14.40;99.90
14733;DHT22;7457;50.960;6.830;2022-07-01T04:03:56;14.30;99.90
14733;DHT22;7457;50.960;6.830;2022-07-01T04:06:23;14.30;99.90
14733;DHT22;7457;50.960;6.830;2022-07-01T04:08:49;14.30;99.90
14733;DHT22;7457;50.960;6.830;2022-07-01T04:11:16;14.30;99.90
14733;DHT22;7457;50.960;6.830;2022-07-01T04:13:41;14.30;99.90
14733;DHT22;7457;50.960;6.830;2022-07-01T04:16:12;14.30;99.90
14733;DHT22;7457;50.960;6.830;2022-07-01T04:18:38;14.30;99.90
14733;DHT22;7457;50.960;6.830;2022-07-01T04:21:04;14.30;99.90
14733;DHT22;7457;50.960;6.830;2022-07-01T04:23:48;14.30;99.90
14733;DHT22;7457;50.960;6.830;2022-07-01T04:26:13;14.30;99.90
14733;DHT22;7457;50.960;6.830;2022-07-01T04:28:39;14.30;99.90
14733;DHT22;7457;50.960;6.830;2022-07-01T04:31:05;14.20;99.90
14733;DHT22;7457;50.960;6.830;2022-07-01T04:33:30;14.20;99.90
14733;DHT22;7457;50.960;6.830;2022-07-01T04:35:56;14.20;99.90
14733;DHT22;7457;50.960;6.830;2022-07-01T04:38:21;14.20;99.90
14733;DHT22;7457;50.960;6.830;2022-07-01T04:40:47;14.20;99.90
14733;DHT22;7457;50.960;6.830;2022-07-01T04:43:31;14.20;99.90
14733;DHT22;7457;50.960;6.830;2022-07-01T04:45:57;14.30;99.90
14733;DHT22;7457;50.960;6.830;2022-07-01T04:48:22;14.30;99.90
14733;DHT22;7457;50.960;6.830;2022-07-01T04:50:48;14.30;99.90
14733;DHT22;7457;50.960;6.830;2022-07-01T04:53:14;14.30;99.90
14733;DHT22;7457;50.960;6.830;2022-07-01T04:55:40;14.30;99.90
14733;DHT22;7457;50.960;6.830;2022-07-01T04:58:05;14.30;99.90
14733;DHT22;7457;50.960;6.830;2022-07-01T05:00:32;14.30;99.90
14733;DHT22;7457;50.960;6.830;2022-07-01T05:02:57;14.30;99.90
14733;DHT22;7457;50.960;6.830;2022-07-01T05:05:23;14.30;99.90
14733;DHT22;7457;50.960;6.830;2022-07-01T05:07:49;14.30;99.90
14733;DHT22;7457;50.960;6.830;2022-07-01T05:10:14;14.30;99.90
14733;DHT22;7457;50.960;6.830;2022-07-01T05:12:40;14.30;99.90
14733;DHT22;7457;50.960;6.830;2022-07-01T05:15:06;14.30;99.90
14733;DHT22;7457;50.960;6.830;2022-07-01T05:17:33;14.40;99.90
14733;DHT22;7457;50.960;6.830;2022-07-01T05:20:18;14.40;99.90
14733;DHT22;7457;50.960;6.830;2022-07-01T05:23:02;14.50;99.90
14733;DHT22;7457;50.960;6.830;2022-07-01T05:25:28;14.60;99.90
14733;DHT22;7457;50.960;6.830;2022-07-01T05:27:53;14.70;99.90
14733;DHT22;7457;50.960;6.830;2022-07-01T05:30:21;14.80;99.90
14733;DHT22;7457;50.960;6.830;2022-07-01T05:32:47;14.90;99.90
14733;DHT22;7457;50.960;6.830;2022-07-01T05:35:12;15.00;99.90
14733;DHT22;7457;50.960;6.830;2022-07-01T05:37:40;15.00;99.90
14733;DHT22;7457;50.960;6.830;2022-07-01T05:40:06;15.10;99.90
14733;DHT22;7457;50.960;6.830;2022-07-01T05:42:32;15.10;99.90
14733;DHT22;7457;50.960;6.830;2022-07-01T05:44:57;15.20;99.90
14733;DHT22;7457;50.960;6.830;2022-07-01T05:47:23;15.20;99.90
14733;DHT22;7457;50.960;6.830;2022-07-01T05:49:49;15.20;99.90
14733;DHT22;7457;50.960;6.830;2022-07-01T05:52:14;15.20;99.90
14733;DHT22;7457;50.960;6.830;2022-07-01T05:54:40;15.30;99.90
14733;DHT22;7457;50.960;6.830;2022-07-01T05:57:05;15.40;99.90
14733;DHT22;7457;50.960;6.830;2022-07-01T05:59:31;15.40;99.90
14733;DHT22;7457;50.960;6.830;2022-07-01T06:01:57;15.50;99.90
14733;DHT22;7457;50.960;6.830;2022-07-01T06:04:22;15.60;99.90
14733;DHT22;7457;50.960;6.830;2022-07-01T06:06:48;15.70;99.90
14733;DHT22;7457;50.960;6.830;2022-07-01T06:09:14;15.70;99.90
14733;DHT22;7457;50.960;6.830;2022-07-01T06:11:40;15.80;99.90
14733;DHT22;7457;50.960;6.830;2022-07-01T06:14:05;15.80;99.90
14733;DHT22;7457;50.960;6.830;2022-07-01T06:16:31;15.90;99.90
14733;DHT22;7457;50.960;6.830;2022-07-01T06:18:57;16.00;99.90
14733;DHT22;7457;50.960;6.830;2022-07-01T06:21:22;16.00;99.90
14733;DHT22;7457;50.960;6.830;2022-07-01T06:23:48;16.10;99.90
14733;DHT22;7457;50.960;6.830;2022-07-01T06:26:13;16.10;99.90
14733;DHT22;7457;50.960;6.830;2022-07-01T06:28:40;16.10;99.90
14733;DHT22;7457;50.960;6.830;2022-07-01T06:31:06;16.10;99.90
14733;DHT22;7457;50.960;6.830;2022-07-01T06:33:31;16.20;99.90
14733;DHT22;7457;50.960;6.830;2022-07-01T06:35:57;16.30;99.90
14733;DHT22;7457;50.960;6.830;2022-07-01T06:38:23;16.40;99.90
14733;DHT22;7457;50.960;6.830;2022-07-01T06:40:49;16.40;99.90
14733;DHT22;7457;50.960;6.830;2022-07-01T06:43:33;16.50;99.90
14733;DHT22;7457;50.960;6.830;2022-07-01T06:46:00;16.60;99.90
14733;DHT22;7457;50.960;6.830;2022-07-01T06:48:26;16.70;99.90
14733;DHT22;7457;50.960;6.830;2022-07-01T06:50:51;16.70;99.90
14733;DHT22;7457;50.960;6.830;2022-07-01T06:53:17;16.70;99.90
14733;DHT22;7457;50.960;6.830;2022-07-01T06:55:43;16.70;99.80
14733;DHT22;7457;50.960;6.830;2022-07-01T06:58:08;16.60;99.70
14733;DHT22;7457;50.960;6.830;2022-07-01T07:00:35;16.60;99.70
14733;DHT22;7457;50.960;6.830;2022-07-01T07:03:01;16.60;99.70
14733;DHT22;7457;50.960;6.830;2022-07-01T07:05:27;16.60;99.90
14733;DHT22;7457;50.960;6.830;2022-07-01T07:07:55;16.60;99.80
14733;DHT22;7457;50.960;6.830;2022-07-01T07:10:21;16.60;99.80
14733;DHT22;7457;50.960;6.830;2022-07-01T07:12:47;16.70;99.80
14733;DHT22;7457;50.960;6.830;2022-07-01T07:15:12;16.70;99.90
14733;DHT22;7457;50.960;6.830;2022-07-01T07:17:38;16.80;99.80
14733;DHT22;7457;50.960;6.830;2022-07-01T07:20:04;16.90;99.90
14733;DHT22;7457;50.960;6.830;2022-07-01T07:22:29;17.00;99.80
14733;DHT22;7457;50.960;6.830;2022-07-01T07:24:55;17.20;99.70
14733;DHT22;7457;50.960;6.830;2022-07-01T07:27:21;17.20;99.50
14733;DHT22;7457;50.960;6.830;2022-07-01T07:29:46;17.30;99.40
14733;DHT22;7457;50.960;6.830;2022-07-01T07:32:12;17.30;99.20
14733;DHT22;7457;50.960;6.830;2022-07-01T07:34:38;17.20;99.00
14733;DHT22;7457;50.960;6.830;2022-07-01T07:37:04;17.20;99.00
14733;DHT22;7457;50.960;6.830;2022-07-01T07:39:29;17.10;99.00
14733;DHT22;7457;50.960;6.830;2022-07-01T07:41:55;17.10;99.00
14733;DHT22;7457;50.960;6.830;2022-07-01T07:44:21;17.20;99.20
14733;DHT22;7457;50.960;6.830;2022-07-01T07:46:46;17.30;99.40
14733;DHT22;7457;50.960;6.830;2022-07-01T07:49:12;17.50;99.30
14733;DHT22;7457;50.960;6.830;2022-07-01T07:51:38;17.70;99.20
14733;DHT22;7457;50.960;6.830;2022-07-01T07:54:03;17.90;98.80
14733;DHT22;7457;50.960;6.830;2022-07-01T07:56:30;17.90;98.40
14733;DHT22;7457;50.960;6.830;2022-07-01T07:58:56;18.00;98.40
14733;DHT22;7457;50.960;6.830;2022-07-01T08:01:21;18.20;98.50
14733;DHT22;7457;50.960;6.830;2022-07-01T08:03:47;18.40;98.10
14733;DHT22;7457;50.960;6.830;2022-07-01T08:06:13;18.50;98.00
14733;DHT22;7457;50.960;6.830;2022-07-01T08:08:38;18.60;97.90
14733;DHT22;7457;50.960;6.830;2022-07-01T08:11:04;18.70;97.60
14733;DHT22;7457;50.960;6.830;2022-07-01T08:13:30;18.90;97.40
14733;DHT22;7457;50.960;6.830;2022-07-01T08:15:56;18.90;97.00
14733;DHT22;7457;50.960;6.830;2022-07-01T08:18:22;18.90;96.70
14733;DHT22;7457;50.960;6.830;2022-07-01T08:20:47;18.90;96.60
14733;DHT22;7457;50.960;6.830;2022-07-01T08:23:16;18.90;96.70
14733;DHT22;7457;50.960;6.830;2022-07-01T08:25:41;19.00;96.80
14733;DHT22;7457;50.960;6.830;2022-07-01T08:28:07;19.10;96.70
14733;DHT22;7457;50.960;6.830;2022-07-01T08:30:32;19.20;96.50
14733;DHT22;7457;50.960;6.830;2022-07-01T08:32:58;19.40;96.30
14733;DHT22;7457;50.960;6.830;2022-07-01T08:35:25;19.40;96.00
14733;DHT22;7457;50.960;6.830;2022-07-01T08:37:51;19.30;95.80
14733;DHT22;7457;50.960;6.830;2022-07-01T08:40:16;19.20;95.70
14733;DHT22;7457;50.960;6.830;2022-07-01T08:42:42;19.30;95.60
14733;DHT22;7457;50.960;6.830;2022-07-01T08:45:08;19.30;95.80
14733;DHT22;7457;50.960;6.830;2022-07-01T08:47:34;19.60;96.00
14733;DHT22;7457;50.960;6.830;2022-07-01T08:50:13;20.00;95.70
14733;DHT22;7457;50.960;6.830;2022-07-01T08:52:39;20.20;94.90
14733;DHT22;7457;50.960;6.830;2022-07-01T08:55:05;20.40;94.50
14733;DHT22;7457;50.960;6.830;2022-07-01T08:57:31;20.60;94.40
14733;DHT22;7457;50.960;6.830;2022-07-01T09:00:07;20.70;94.10
14733;DHT22;7457;50.960;6.830;2022-07-01T09:05:18;20.90;93.40
14733;DHT22;7457;50.960;6.830;2022-07-01T09:07:44;20.80;93.10
14733;DHT22;7457;50.960;6.830;2022-07-01T09:10:17;20.70;92.90
14733;DHT22;7457;50.960;6.830;2022-07-01T09:12:46;20.50;92.60
14733;DHT22;7457;50.960;6.830;2022-07-01T09:17:45;20.20;92.30
14733;DHT22;7457;50.960;6.830;2022-07-01T09:23:48;19.90;92.10
14733;DHT22;7457;50.960;6.830;2022-07-01T09:26:51;19.80;92.20
14733;DHT22;7457;50.960;6.830;2022-07-01T09:35:45;20.40;91.40
14733;DHT22;7457;50.960;6.830;2022-07-01T09:38:13;20.30;91.30
14733;DHT22;7457;50.960;6.830;2022-07-01T09:40:50;20.40;91.40
14733;DHT22;7457;50.960;6.830;2022-07-01T09:43:17;20.40;91.20
14733;DHT22;7457;50.960;6.830;2022-07-01T09:46:01;20.30;91.00
14733;DHT22;7457;50.960;6.830;2022-07-01T09:51:00;20.70;91.40
14733;DHT22;7457;50.960;6.830;2022-07-01T09:53:26;21.00;91.00
14733;DHT22;7457;50.960;6.830;2022-07-01T09:55:52;21.20;90.80
14733;DHT22;7457;50.960;6.830;2022-07-01T09:58:18;21.30;90.30
14733;DHT22;7457;50.960;6.830;2022-07-01T10:00:44;21.50;90.30
14733;DHT22;7457;50.960;6.830;2022-07-01T10:03:12;22.00;90.50
14733;DHT22;7457;50.960;6.830;2022-07-01T10:11:04;23.50;87.30
14733;DHT22;7457;50.960;6.830;2022-07-01T10:13:33;24.10;85.60
14733;DHT22;7457;50.960;6.830;2022-07-01T10:16:02;24.70;84.50
14733;DHT22;7457;50.960;6.830;2022-07-01T10:18:28;25.20;83.50
14733;DHT22;7457;50.960;6.830;2022-07-01T10:20:56;25.30;81.00
14733;DHT22;7457;50.960;6.830;2022-07-01T10:23:27;24.90;78.80
14733;DHT22;7457;50.960;6.830;2022-07-01T10:26:03;24.40;78.00
14733;DHT22;7457;50.960;6.830;2022-07-01T10:31:17;23.70;78.60
14733;DHT22;7457;50.960;6.830;2022-07-01T10:36:25;23.40;79.80
14733;DHT22;7457;50.960;6.830;2022-07-01T10:42:09;23.20;79.50
14733;DHT22;7457;50.960;6.830;2022-07-01T10:44:35;23.10;79.70
14733;DHT22;7457;50.960;6.830;2022-07-01T10:47:06;23.10;80.10
14733;DHT22;7457;50.960;6.830;2022-07-01T10:52:13;23.80;80.40
14733;DHT22;7457;50.960;6.830;2022-07-01T11:04:56;24.90;78.10
14733;DHT22;7457;50.960;6.830;2022-07-01T11:07:27;25.30;77.00
14733;DHT22;7457;50.960;6.830;2022-07-01T11:09:55;25.80;76.30
14733;DHT22;7457;50.960;6.830;2022-07-01T11:12:22;26.20;74.90
14733;DHT22;7457;50.960;6.830;2022-07-01T11:14:49;26.20;74.10
14733;DHT22;7457;50.960;6.830;2022-07-01T11:17:15;25.90;72.90
14733;DHT22;7457;50.960;6.830;2022-07-01T11:19:51;25.40;72.40
14733;DHT22;7457;50.960;6.830;2022-07-01T11:22:22;24.80;72.70
14733;DHT22;7457;50.960;6.830;2022-07-01T11:24:52;24.20;72.90
14733;DHT22;7457;50.960;6.830;2022-07-01T11:27:18;23.70;73.40
14733;DHT22;7457;50.960;6.830;2022-07-01T11:29:44;23.20;74.30
14733;DHT22;7457;50.960;6.830;2022-07-01T11:32:10;23.00;75.00
14733;DHT22;7457;50.960;6.830;2022-07-01T11:45:29;22.90;74.60
14733;DHT22;7457;50.960;6.830;2022-07-01T11:48:05;22.70;74.70
14733;DHT22;7457;50.960;6.830;2022-07-01T11:50:32;22.70;75.10
14733;DHT22;7457;50.960;6.830;2022-07-01T11:52:58;23.20;76.30
14733;DHT22;7457;50.960;6.830;2022-07-01T11:55:25;23.80;75.80
14733;DHT22;7457;50.960;6.830;2022-07-01T11:57:50;24.50;73.60
14733;DHT22;7457;50.960;6.830;2022-07-01T12:00:18;25.10;72.60
14733;DHT22;7457;50.960;6.830;2022-07-01T12:02:44;25.60;71.80
14733;DHT22;7457;50.960;6.830;2022-07-01T12:05:09;25.70;70.10
14733;DHT22;7457;50.960;6.830;2022-07-01T12:07:35;25.70;68.80
14733;DHT22;7457;50.960;6.830;2022-07-01T12:10:01;25.70;69.10
14733;DHT22;7457;50.960;6.830;2022-07-01T12:12:30;25.70;68.10
14733;DHT22;7457;50.960;6.830;2022-07-01T12:14:57;25.90;68.20
14733;DHT22;7457;50.960;6.830;2022-07-01T12:17:25;26.00;68.00
14733;DHT22;7457;50.960;6.830;2022-07-01T12:19:51;25.80;66.40
14733;DHT22;7457;50.960;6.830;2022-07-01T12:22:22;25.60;66.90
14733;DHT22;7457;50.960;6.830;2022-07-01T12:25:05;25.30;67.20
14733;DHT22;7457;50.960;6.830;2022-07-01T12:27:33;25.10;67.90
14733;DHT22;7457;50.960;6.830;2022-07-01T12:29:59;24.90;68.00
14733;DHT22;7457;50.960;6.830;2022-07-01T12:32:26;24.60;67.60
14733;DHT22;7457;50.960;6.830;2022-07-01T12:35:00;24.40;67.30
14733;DHT22;7457;50.960;6.830;2022-07-01T12:39:57;24.20;68.40
14733;DHT22;7457;50.960;6.830;2022-07-01T12:44:52;24.20;68.40
14733;DHT22;7457;50.960;6.830;2022-07-01T12:47:19;24.30;68.60
14733;DHT22;7457;50.960;6.830;2022-07-01T12:49:45;24.50;68.50
14733;DHT22;7457;50.960;6.830;2022-07-01T12:52:25;24.60;68.00
14733;DHT22;7457;50.960;6.830;2022-07-01T12:54:51;24.80;66.30
14733;DHT22;7457;50.960;6.830;2022-07-01T12:57:16;24.80;66.30
14733;DHT22;7457;50.960;6.830;2022-07-01T12:59:42;24.80;65.80
14733;DHT22;7457;50.960;6.830;2022-07-01T13:02:07;24.70;65.60
14733;DHT22;7457;50.960;6.830;2022-07-01T13:04:33;24.60;65.40
14733;DHT22;7457;50.960;6.830;2022-07-01T13:06:59;24.40;64.20
14733;DHT22;7457;50.960;6.830;2022-07-01T13:09:24;24.40;64.40
14733;DHT22;7457;50.960;6.830;2022-07-01T13:11:50;24.50;64.80
14733;DHT22;7457;50.960;6.830;2022-07-01T13:14:16;24.60;64.60
14733;DHT22;7457;50.960;6.830;2022-07-01T13:16:41;24.70;64.00
14733;DHT22;7457;50.960;6.830;2022-07-01T13:19:07;24.80;64.30
14733;DHT22;7457;50.960;6.830;2022-07-01T13:21:33;24.80;64.00
14733;DHT22;7457;50.960;6.830;2022-07-01T13:23:58;24.80;63.60
14733;DHT22;7457;50.960;6.830;2022-07-01T13:26:24;24.80;63.40
14733;DHT22;7457;50.960;6.830;2022-07-01T13:28:49;24.70;64.30
14733;DHT22;7457;50.960;6.830;2022-07-01T13:31:15;24.70;63.70
14733;DHT22;7457;50.960;6.830;2022-07-01T13:33:41;24.70;64.20
14733;DHT22;7457;50.960;6.830;2022-07-01T13:36:06;24.80;64.40
14733;DHT22;7457;50.960;6.830;2022-07-01T13:38:32;24.80;63.40
14733;DHT22;7457;50.960;6.830;2022-07-01T13:40:57;24.90;63.60
14733;DHT22;7457;50.960;6.830;2022-07-01T13:43:23;24.80;63.30
14733;DHT22;7457;50.960;6.830;2022-07-01T13:45:49;24.70;63.10
14733;DHT22;7457;50.960;6.830;2022-07-01T13:48:15;24.60;63.20
14733;DHT22;7457;50.960;6.830;2022-07-01T13:50:40;24.40;62.70
14733;DHT22;7457;50.960;6.830;2022-07-01T13:53:06;24.20;63.50
14733;DHT22;7457;50.960;6.830;2022-07-01T13:55:31;24.00;64.10
14733;DHT22;7457;50.960;6.830;2022-07-01T13:57:57;23.90;64.10
14733;DHT22;7457;50.960;6.830;2022-07-01T14:00:23;23.70;64.10
14733;DHT22;7457;50.960;6.830;2022-07-01T14:02:49;23.50;63.50
14733;DHT22;7457;50.960;6.830;2022-07-01T14:05:15;23.40;63.80
14733;DHT22;7457;50.960;6.830;2022-07-01T14:07:40;23.20;64.00
14733;DHT22;7457;50.960;6.830;2022-07-01T14:10:06;23.20;65.30
14733;DHT22;7457;50.960;6.830;2022-07-01T14:12:32;23.30;65.50
14733;DHT22;7457;50.960;6.830;2022-07-01T14:14:58;23.40;65.10
14733;DHT22;7457;50.960;6.830;2022-07-01T14:17:25;23.40;64.10
14733;DHT22;7457;50.960;6.830;2022-07-01T14:19:51;23.50;63.90
14733;DHT22;7457;50.960;6.830;2022-07-01T14:22:17;23.50;63.70
14733;DHT22;7457;50.960;6.830;2022-07-01T14:24:43;23.60;63.60
14733;DHT22;7457;50.960;6.830;2022-07-01T14:27:08;23.80;63.60
14733;DHT22;7457;50.960;6.830;2022-07-01T14:29:34;23.90;63.20
14733;DHT22;7457;50.960;6.830;2022-07-01T14:32:00;24.00;62.80
14733;DHT22;7457;50.960;6.830;2022-07-01T14:34:26;24.10;63.10
14733;DHT22;7457;50.960;6.830;2022-07-01T14:36:52;24.30;63.50
14733;DHT22;7457;50.960;6.830;2022-07-01T14:39:17;24.40;63.50
14733;DHT22;7457;50.960;6.830;2022-07-01T14:41:43;24.50;62.90
14733;DHT22;7457;50.960;6.830;2022-07-01T14:44:15;24.60;62.50
14733;DHT22;7457;50.960;6.830;2022-07-01T14:46:41;24.60;61.60
14733;DHT22;7457;50.960;6.830;2022-07-01T14:49:07;24.60;61.10
14733;DHT22;7457;50.960;6.830;2022-07-01T14:51:32;24.60;61.30
14733;DHT22;7457;50.960;6.830;2022-07-01T14:53:59;24.50;60.60
14733;DHT22;7457;50.960;6.830;2022-07-01T14:56:24;24.30;60.20
14733;DHT22;7457;50.960;6.830;2022-07-01T14:58:50;24.00;60.10
14733;DHT22;7457;50.960;6.830;2022-07-01T15:01:16;23.90;61.40
14733;DHT22;7457;50.960;6.830;2022-07-01T15:03:41;23.70;61.30
14733;DHT22;7457;50.960;6.830;2022-07-01T15:06:07;23.50;61.70
14733;DHT22;7457;50.960;6.830;2022-07-01T15:08:33;23.40;62.10
14733;DHT22;7457;50.960;6.830;2022-07-01T15:10:58;23.40;62.40
14733;DHT22;7457;50.960;6.830;2022-07-01T15:13:32;23.50;62.40
14733;DHT22;7457;50.960;6.830;2022-07-01T15:15:58;23.50;62.50
14733;DHT22;7457;50.960;6.830;2022-07-01T15:18:25;23.50;61.10
14733;DHT22;7457;50.960;6.830;2022-07-01T15:20:51;23.40;60.80
14733;DHT22;7457;50.960;6.830;2022-07-01T15:23:16;23.40;61.10
14733;DHT22;7457;50.960;6.830;2022-07-01T15:25:42;23.50;61.30
14733;DHT22;7457;50.960;6.830;2022-07-01T15:28:08;23.40;61.30
14733;DHT22;7457;50.960;6.830;2022-07-01T15:30:33;23.30;61.50
14733;DHT22;7457;50.960;6.830;2022-07-01T15:32:59;23.10;61.50
14733;DHT22;7457;50.960;6.830;2022-07-01T15:35:25;22.90;62.30
14733;DHT22;7457;50.960;6.830;2022-07-01T15:37:51;22.80;63.20
14733;DHT22;7457;50.960;6.830;2022-07-01T15:40:18;22.70;63.40
14733;DHT22;7457;50.960;6.830;2022-07-01T15:42:43;22.80;63.30
14733;DHT22;7457;50.960;6.830;2022-07-01T15:45:09;22.90;63.40
14733;DHT22;7457;50.960;6.830;2022-07-01T15:47:35;22.90;63.30
14733;DHT22;7457;50.960;6.830;2022-07-01T15:50:19;22.90;63.30
14733;DHT22;7457;50.960;6.830;2022-07-01T15:52:46;22.80;62.80
14733;DHT22;7457;50.960;6.830;2022-07-01T15:55:13;22.90;63.10
14733;DHT22;7457;50.960;6.830;2022-07-01T15:57:39;22.90;63.30
14733;DHT22;7457;50.960;6.830;2022-07-01T16:00:06;22.90;63.40
14733;DHT22;7457;50.960;6.830;2022-07-01T16:02:32;22.90;63.30
14733;DHT22;7457;50.960;6.830;2022-07-01T16:04:58;22.90;62.60
14733;DHT22;7457;50.960;6.830;2022-07-01T16:07:25;22.90;62.20
14733;DHT22;7457;50.960;6.830;2022-07-01T16:09:58;23.00;63.10
14733;DHT22;7457;50.960;6.830;2022-07-01T16:12:28;22.90;62.40
14733;DHT22;7457;50.960;6.830;2022-07-01T16:14:55;22.90;62.30
14733;DHT22;7457;50.960;6.830;2022-07-01T16:17:23;23.00;61.90
14733;DHT22;7457;50.960;6.830;2022-07-01T16:19:52;23.00;62.30
14733;DHT22;7457;50.960;6.830;2022-07-01T16:22:19;22.90;62.10
14733;DHT22;7457;50.960;6.830;2022-07-01T16:24:48;23.00;62.10
14733;DHT22;7457;50.960;6.830;2022-07-01T16:27:16;22.90;61.90
14733;DHT22;7457;50.960;6.830;2022-07-01T16:29:43;22.80;62.20
14733;DHT22;7457;50.960;6.830;2022-07-01T16:32:11;22.60;62.10
14733;DHT22;7457;50.960;6.830;2022-07-01T16:34:38;22.60;62.50
14733;DHT22;7457;50.960;6.830;2022-07-01T16:37:07;22.50;62.50
14733;DHT22;7457;50.960;6.830;2022-07-01T16:39:35;22.50;62.60
14733;DHT22;7457;50.960;6.830;2022-07-01T16:42:11;22.50;62.60
14733;DHT22;7457;50.960;6.830;2022-07-01T16:47:30;22.40;62.80
14733;DHT22;7457;50.960;6.830;2022-07-01T16:49:59;22.30;63.10